Time;durP1;ratioP1;P1;durP2;ratioP2;P2;SDS_P1;SDS_P2;PMS_P1;PMS_P2;Temp;Humidity;BMP_temperature;BMP_pressure;BME280_temperature;BME280_humidity;BME280_pressure;Samples;Min_cycle;Max_cycle;Signal;HPM_P1;HPM_P2
2023/06/24 00:01:13;;;;;;;3.30;2.08;;;;;;;;;;5094968;28;20024;-79
2023/06/24 00:03:38;;;;;;;2.97;2.60;;;;;;;;;;5095625;28;20028;-79
2023/06/24 00:06:04;;;;;;;1.90;1.80;;;;;;;;;;5094045;28;20024;-79
2023/06/24 00:08:34;;;;;;;2.13;2.03;;;;;;;;;;5094435;28;20028;-75
2023/06/24 00:11:02;;;;;;;2.17;2.00;;;;;;;;;;5095824;28;20070;-76
2023/06/24 00:13:28;;;;;;;1.92;1.83;;;;;;;;;;5094728;28;20020;-79
2023/06/24 00:15:55;;;;;;;1.85;1.73;;;;;;;;;;5077072;28;20036;-79
2023/06/24 00:18:24;;;;;;;2.25;2.08;;;;;;;;;;5093878;28;20039;-80
2023/06/24 00:20:49;;;;;;;2.05;1.95;;;;;;;;;;5093952;28;20089;-79
2023/06/24 00:23:16;;;;;;;2.05;1.95;;;;;;;;;;5095147;28;20474;-79
2023/06/24 00:25:42;;;;;;;1.90;1.80;;;;;;;;;;5093787;28;20039;-77
2023/06/24 00:28:07;;;;;;;1.92;1.83;;;;;;;;;;5095188;28;20377;-77
2023/06/24 00:30:33;;;;;;;1.92;1.83;;;;;;;;;;5093652;28;20115;-76
2023/06/24 00:32:58;;;;;;;1.90;1.80;;;;;;;;;;5095278;28;20055;-77
2023/06/24 00:35:23;;;;;;;2.17;1.92;;;;;;;;;;5094936;28;20036;-77
2023/06/24 00:37:49;;;;;;;2.58;2.03;;;;;;;;;;5093606;28;20028;-77
2023/06/24 00:40:17;;;;;;;2.25;2.10;;;;;;;;;;5094832;28;20059;-74
2023/06/24 00:42:44;;;;;;;3.42;1.98;;;;;;;;;;5076630;28;20028;-74
2023/06/24 00:45:09;;;;;;;2.30;1.80;;;;;;;;;;5093742;28;20040;-74
2023/06/24 00:47:35;;;;;;;2.47;2.17;;;;;;;;;;5094177;28;20488;-71
2023/06/24 00:50:01;;;;;;;3.20;2.00;;;;;;;;;;5095300;28;20350;-71
2023/06/24 00:52:26;;;;;;;2.00;1.90;;;;;;;;;;5095262;28;20032;-71
2023/06/24 00:54:53;;;;;;;2.42;2.25;;;;;;;;;;5093954;28;20424;-71
2023/06/24 00:57:24;;;;;;;2.78;2.25;;;;;;;;;;5093672;28;20032;-72
2023/06/24 00:59:53;;;;;;;2.42;2.22;;;;;;;;;;5093711;28;20427;-72
2023/06/24 01:02:19;;;;;;;2.47;2.28;;;;;;;;;;5093451;28;20023;-72
2023/06/24 01:04:45;;;;;;;2.50;2.40;;;;;;;;;;5093484;28;20045;-72
2023/06/24 01:07:11;;;;;;;3.38;1.90;;;;;;;;;;5093625;28;20103;-72
2023/06/24 01:09:36;;;;;;;2.05;1.95;;;;;;;;;;5093073;28;20469;-71
2023/06/24 01:12:02;;;;;;;2.72;2.42;;;;;;;;;;5093638;28;20157;-75
2023/06/24 01:14:29;;;;;;;2.67;2.00;;;;;;;;;;5092748;28;20066;-75
2023/06/24 01:17:19;;;;;;;2.22;2.03;;;;;;;;;;5094191;28;20055;-74
2023/06/24 01:19:53;;;;;;;2.50;2.30;;;;;;;;;;5092886;28;20127;-75
2023/06/24 01:22:25;;;;;;;3.15;1.95;;;;;;;;;;5094087;28;20420;-75
2023/06/24 01:25:00;;;;;;;2.00;1.90;;;;;;;;;;5094022;28;20032;-76
2023/06/24 01:27:46;;;;;;;1.92;1.83;;;;;;;;;;5092775;28;20524;-77
2023/06/24 01:30:17;;;;;;;2.15;2.05;;;;;;;;;;5090130;28;20065;-78
2023/06/24 01:32:56;;;;;;;2.95;2.38;;;;;;;;;;5094214;28;20381;-77
2023/06/24 01:35:23;;;;;;;2.58;2.22;;;;;;;;;;5088765;28;20453;-77
2023/06/24 01:37:51;;;;;;;2.63;2.03;;;;;;;;;;5092807;28;20054;-76
2023/06/24 01:40:40;;;;;;;2.75;2.00;;;;;;;;;;5093118;28;20036;-77
2023/06/24 01:43:08;;;;;;;2.25;2.15;;;;;;;;;;5092320;28;20424;-75
2023/06/24 01:45:36;;;;;;;2.28;2.17;;;;;;;;;;5092691;28;20047;-75
2023/06/24 01:48:06;;;;;;;2.20;2.08;;;;;;;;;;5094367;28;20028;-74
2023/06/24 01:50:32;;;;;;;2.53;2.10;;;;;;;;;;5092537;28;20036;-74
2023/06/24 01:53:05;;;;;;;2.92;1.95;;;;;;;;;;5094083;28;20020;-77
2023/06/24 01:55:33;;;;;;;1.90;1.80;;;;;;;;;;5092432;28;20058;-76
2023/06/24 01:58:01;;;;;;;2.30;2.13;;;;;;;;;;5092460;28;20024;-76
2023/06/24 02:00:27;;;;;;;2.45;1.98;;;;;;;;;;5092753;28;20111;-75
2023/06/24 02:02:54;;;;;;;2.45;1.77;;;;;;;;;;5092474;28;20026;-76
2023/06/24 02:05:20;;;;;;;2.55;2.20;;;;;;;;;;5092333;28;20031;-76
2023/06/24 02:07:47;;;;;;;2.17;2.03;;;;;;;;;;5094120;28;20365;-77
2023/06/24 02:10:13;;;;;;;2.30;2.10;;;;;;;;;;5092835;28;20385;-76
2023/06/24 02:12:40;;;;;;;2.25;2.15;;;;;;;;;;5092302;28;20093;-75
2023/06/24 02:15:07;;;;;;;2.22;2.13;;;;;;;;;;5092916;28;20033;-79
2023/06/24 02:17:33;;;;;;;3.92;2.38;;;;;;;;;;5092368;28;20032;-80
2023/06/24 02:20:00;;;;;;;2.40;2.20;;;;;;;;;;5093766;28;20024;-80
2023/06/24 02:22:26;;;;;;;2.13;2.03;;;;;;;;;;5092579;28;20051;-79
2023/06/24 02:24:52;;;;;;;2.47;2.22;;;;;;;;;;5093306;28;20482;-79
2023/06/24 02:27:17;;;;;;;2.58;2.47;;;;;;;;;;5094900;28;20038;-77
2023/06/24 02:29:43;;;;;;;2.95;2.53;;;;;;;;;;5093172;28;20036;-78
2023/06/24 02:32:09;;;;;;;2.80;2.60;;;;;;;;;;5096475;28;20074;-77
2023/06/24 02:34:35;;;;;;;2.42;2.33;;;;;;;;;;5098049;28;20385;-77
2023/06/24 02:37:01;;;;;;;2.67;2.47;;;;;;;;;;5096589;28;20035;-79
2023/06/24 02:39:26;;;;;;;2.35;2.25;;;;;;;;;;5095925;28;20111;-75
2023/06/24 02:41:52;;;;;;;2.42;2.33;;;;;;;;;;5096190;28;20423;-78
2023/06/24 02:47:07;;;;;;;2.83;2.63;;;;;;;;;;4967713;28;20493;-75
2023/06/24 02:49:33;;;;;;;2.65;2.45;;;;;;;;;;4976827;28;20031;-76
2023/06/24 02:52:05;;;;;;;2.65;2.53;;;;;;;;;;4960607;28;20035;-75
2023/06/24 02:54:32;;;;;;;4.45;2.65;;;;;;;;;;4976614;28;20512;-76
2023/06/24 02:57:28;;;;;;;2.42;2.33;;;;;;;;;;4956711;28;20081;-77
2023/06/24 03:00:16;;;;;;;2.63;2.42;;;;;;;;;;4976898;28;20434;-76
2023/06/24 03:03:13;;;;;;;2.88;2.63;;;;;;;;;;4944090;28;20549;-75
2023/06/24 03:05:56;;;;;;;2.42;2.33;;;;;;;;;;4960131;28;20503;-75
2023/06/24 03:08:23;;;;;;;4.75;2.67;;;;;;;;;;4976310;28;20034;-77
2023/06/24 03:10:57;;;;;;;2.97;2.78;;;;;;;;;;4976286;28;20481;-76
2023/06/24 03:13:24;;;;;;;2.70;2.58;;;;;;;;;;4977471;28;20042;-76
2023/06/24 03:15:55;;;;;;;3.28;2.80;;;;;;;;;;4976628;28;20023;-72
2023/06/24 03:18:21;;;;;;;2.67;2.58;;;;;;;;;;4960367;28;20086;-73
2023/06/24 03:20:47;;;;;;;2.75;2.55;;;;;;;;;;4959978;28;20034;-74
2023/06/24 03:23:16;;;;;;;2.72;2.20;;;;;;;;;;4976510;28;20416;-74
2023/06/24 03:25:43;;;;;;;3.15;2.95;;;;;;;;;;4971364;28;20417;-77
2023/06/24 03:28:08;;;;;;;3.20;3.00;;;;;;;;;;4975986;28;20031;-77
2023/06/24 03:30:43;;;;;;;5.00;3.92;;;;;;;;;;4960165;28;20123;-76
2023/06/24 03:33:10;;;;;;;8.05;6.07;;;;;;;;;;4960064;28;20477;-74
2023/06/24 03:35:36;;;;;;;9.35;7.57;;;;;;;;;;4975964;28;20034;-74
2023/06/24 03:38:04;;;;;;;10.13;7.43;;;;;;;;;;4959368;28;20023;-75
2023/06/24 03:40:32;;;;;;;20.92;12.70;;;;;;;;;;4975648;28;20031;-76
2023/06/24 03:42:57;;;;;;;18.52;12.02;;;;;;;;;;4976341;28;20023;-76
2023/06/24 03:45:23;;;;;;;18.10;11.60;;;;;;;;;;4975623;28;20038;-76
2023/06/24 03:47:49;;;;;;;17.88;12.38;;;;;;;;;;4975668;28;20063;-76
2023/06/24 03:50:14;;;;;;;23.58;14.60;;;;;;;;;;4977382;28;20023;-76
2023/06/24 03:52:41;;;;;;;27.95;18.15;;;;;;;;;;4976928;28;20571;-76
2023/06/24 03:55:06;;;;;;;27.33;19.17;;;;;;;;;;4975455;28;20110;-76
2023/06/24 03:57:32;;;;;;;19.52;14.43;;;;;;;;;;4977293;28;20433;-74
2023/06/24 03:59:57;;;;;;;21.10;14.05;;;;;;;;;;4975866;28;20133;-74
2023/06/24 04:02:24;;;;;;;22.85;16.35;;;;;;;;;;4975606;28;20035;-74
2023/06/24 04:04:51;;;;;;;22.27;14.90;;;;;;;;;;4975869;28;20023;-75
2023/06/24 04:07:27;;;;;;;20.60;14.13;;;;;;;;;;4959148;28;20031;-75
2023/06/24 04:09:55;;;;;;;19.55;13.75;;;;;;;;;;4975987;28;20054;-75
2023/06/24 04:12:21;;;;;;;23.88;14.88;;;;;;;;;;4975606;28;20058;-74
2023/06/24 04:14:46;;;;;;;21.60;14.68;;;;;;;;;;4975919;28;20034;-61
2023/06/24 04:17:11;;;;;;;27.60;19.40;;;;;;;;;;4976846;28;20031;-73
2023/06/24 04:19:37;;;;;;;24.85;17.83;;;;;;;;;;4970010;28;20397;-73
2023/06/24 04:22:02;;;;;;;18.08;14.18;;;;;;;;;;4976937;28;20041;-75
2023/06/24 04:24:28;;;;;;;27.58;17.65;;;;;;;;;;4974873;28;20042;-75
2023/06/24 04:26:55;;;;;;;21.85;15.13;;;;;;;;;;4958894;28;20416;-75
2023/06/24 04:29:21;;;;;;;17.98;14.57;;;;;;;;;;4976387;28;20014;-77
2023/06/24 04:31:47;;;;;;;22.30;16.35;;;;;;;;;;4958717;28;20035;-76
2023/06/24 04:34:13;;;;;;;27.90;19.33;;;;;;;;;;4974792;28;20404;-76
2023/06/24 04:36:38;;;;;;;23.95;16.33;;;;;;;;;;4958630;28;20030;-71
2023/06/24 04:39:04;;;;;;;22.00;15.65;;;;;;;;;;4976357;28;20480;-77
2023/06/24 04:41:32;;;;;;;20.83;15.25;;;;;;;;;;4974727;28;20034;-77
2023/06/24 04:43:57;;;;;;;23.35;14.25;;;;;;;;;;4958742;28;20041;-78
2023/06/24 04:46:23;;;;;;;21.67;15.18;;;;;;;;;;4970142;28;20050;-76
2023/06/24 04:48:49;;;;;;;20.90;15.25;;;;;;;;;;4974012;28;20038;-75
2023/06/24 04:51:14;;;;;;;23.95;16.55;;;;;;;;;;4975799;28;20473;-76
2023/06/24 04:53:40;;;;;;;25.90;16.65;;;;;;;;;;4975645;28;20065;-76
2023/06/24 04:56:05;;;;;;;27.42;18.52;;;;;;;;;;4975863;28;20078;-72
2023/06/24 04:58:30;;;;;;;20.10;13.93;;;;;;;;;;4975995;28;20046;-71
2023/06/24 05:00:56;;;;;;;26.00;17.63;;;;;;;;;;4958316;28;20026;-71
2023/06/24 05:03:21;;;;;;;23.92;16.52;;;;;;;;;;4975786;28;20480;-74
2023/06/24 05:05:47;;;;;;;20.27;13.68;;;;;;;;;;4975835;28;20035;-76
2023/06/24 05:08:12;;;;;;;17.90;10.82;;;;;;;;;;4975573;28;20030;-75
2023/06/24 05:10:37;;;;;;;19.17;13.68;;;;;;;;;;4975656;28;20501;-72
2023/06/24 05:13:03;;;;;;;18.27;12.48;;;;;;;;;;4975694;28;20023;-73
2023/06/24 05:15:29;;;;;;;17.45;11.45;;;;;;;;;;4971871;28;20658;-74
2023/06/24 05:17:55;;;;;;;15.38;12.18;;;;;;;;;;4956110;28;20086;-74
2023/06/24 05:20:20;;;;;;;14.65;9.93;;;;;;;;;;4975228;28;20031;-76
2023/06/24 05:22:46;;;;;;;12.45;10.13;;;;;;;;;;4974199;28;20030;-76
2023/06/24 05:25:14;;;;;;;14.55;11.50;;;;;;;;;;4975298;28;20039;-79
2023/06/24 05:27:39;;;;;;;14.90;10.55;;;;;;;;;;4974996;28;20038;-76
2023/06/24 05:30:05;;;;;;;18.20;12.27;;;;;;;;;;4984907;28;20023;-74
2023/06/24 05:32:30;;;;;;;12.02;9.32;;;;;;;;;;4977345;28;20077;-73
2023/06/24 05:34:55;;;;;;;13.20;10.27;;;;;;;;;;4975549;28;20022;-78
2023/06/24 05:37:21;;;;;;;15.20;11.20;;;;;;;;;;4975492;28;20528;-78
2023/06/24 05:39:46;;;;;;;14.38;10.65;;;;;;;;;;4974779;28;20039;-78
2023/06/24 05:42:11;;;;;;;14.02;10.43;;;;;;;;;;4974259;28;20038;-77
2023/06/24 05:44:38;;;;;;;15.55;11.07;;;;;;;;;;4974697;28;20080;-76
2023/06/24 05:47:03;;;;;;;22.35;16.45;;;;;;;;;;4970259;28;20047;-76
2023/06/24 05:49:28;;;;;;;21.48;16.08;;;;;;;;;;4954235;28;20339;-75
2023/06/24 05:51:54;;;;;;;19.45;13.73;;;;;;;;;;4970385;28;20031;-68
2023/06/24 05:54:19;;;;;;;15.10;12.85;;;;;;;;;;4974701;28;20443;-74
2023/06/24 05:56:44;;;;;;;21.55;15.25;;;;;;;;;;4989798;28;20413;-76
2023/06/24 05:59:10;;;;;;;20.83;15.10;;;;;;;;;;4973935;28;20366;-76
2023/06/24 06:01:35;;;;;;;22.02;16.42;;;;;;;;;;4977708;28;20027;-76
2023/06/24 06:04:00;;;;;;;19.75;14.40;;;;;;;;;;4977600;28;20031;-76
2023/06/24 06:06:26;;;;;;;20.45;15.73;;;;;;;;;;4978001;28;20110;-75
2023/06/24 06:08:51;;;;;;;21.65;15.15;;;;;;;;;;4993515;28;20039;-75
2023/06/24 06:11:25;;;;;;;21.52;13.98;;;;;;;;;;4993747;28;20031;-82
2023/06/24 06:13:51;;;;;;;16.88;11.27;;;;;;;;;;4961304;28;20035;-75
2023/06/24 06:16:17;;;;;;;14.80;9.98;;;;;;;;;;4993800;28;20027;-76
2023/06/24 06:18:42;;;;;;;10.88;9.27;;;;;;;;;;4977055;28;20023;-75
2023/06/24 06:21:10;;;;;;;14.07;10.68;;;;;;;;;;4978277;28;20030;-74
2023/06/24 06:23:35;;;;;;;14.38;9.77;;;;;;;;;;4977405;28;20023;-75
2023/06/24 06:26:00;;;;;;;12.30;8.15;;;;;;;;;;4978171;28;20466;-75
2023/06/24 06:28:25;;;;;;;9.93;7.70;;;;;;;;;;4978280;28;20154;-78
2023/06/24 06:30:51;;;;;;;8.75;7.15;;;;;;;;;;4978261;28;20466;-75
2023/06/24 06:33:16;;;;;;;7.97;7.18;;;;;;;;;;4977915;28;20102;-75
2023/06/24 06:35:42;;;;;;;10.05;7.47;;;;;;;;;;4978189;28;20031;-74
2023/06/24 06:38:07;;;;;;;9.80;7.03;;;;;;;;;;4977136;28;20464;-75
2023/06/24 06:40:32;;;;;;;7.50;6.18;;;;;;;;;;4976079;28;20022;-76
2023/06/24 06:42:58;;;;;;;6.95;5.60;;;;;;;;;;4977271;28;20027;-76
2023/06/24 06:45:23;;;;;;;9.07;5.50;;;;;;;;;;4993780;28;20035;-76
2023/06/24 06:47:49;;;;;;;8.45;6.50;;;;;;;;;;4995497;28;20081;-76
2023/06/24 06:50:15;;;;;;;6.80;5.85;;;;;;;;;;4996653;28;20023;-76
2023/06/24 06:52:40;;;;;;;6.68;6.03;;;;;;;;;;4979741;28;20065;-77
2023/06/24 06:55:06;;;;;;;5.72;5.28;;;;;;;;;;4997088;28;20030;-77
2023/06/24 06:57:31;;;;;;;9.68;6.90;;;;;;;;;;4995565;28;20122;-76
2023/06/24 06:59:57;;;;;;;7.25;5.65;;;;;;;;;;4997011;28;20022;-74
2023/06/24 07:02:22;;;;;;;9.07;6.20;;;;;;;;;;4979651;28;20041;-80
2023/06/24 07:04:48;;;;;;;8.75;6.53;;;;;;;;;;4997147;28;20062;-80
2023/06/24 07:07:13;;;;;;;8.68;5.38;;;;;;;;;;4997223;28;20430;-79
2023/06/24 07:09:39;;;;;;;5.30;4.80;;;;;;;;;;4997086;28;20030;-74
2023/06/24 07:12:05;;;;;;;5.80;5.38;;;;;;;;;;4996153;28;20019;-76
2023/06/24 07:14:31;;;;;;;10.10;5.82;;;;;;;;;;4996451;28;20022;-76
2023/06/24 07:16:56;;;;;;;6.05;5.45;;;;;;;;;;4996481;28;20528;-76
2023/06/24 07:19:21;;;;;;;6.32;5.70;;;;;;;;;;4995862;28;20034;-76
2023/06/24 07:21:47;;;;;;;15.60;5.95;;;;;;;;;;4995677;28;20073;-76
2023/06/24 07:24:13;;;;;;;5.15;4.75;;;;;;;;;;4995005;28;20044;-77
2023/06/24 07:26:38;;;;;;;5.57;4.95;;;;;;;;;;4995022;28;20026;-76
2023/06/24 07:29:07;;;;;;;6.05;5.53;;;;;;;;;;4995099;28;20687;-76
2023/06/24 07:31:32;;;;;;;9.55;5.32;;;;;;;;;;4978272;28;20030;-76
2023/06/24 07:33:58;;;;;;;6.82;5.50;;;;;;;;;;4996050;28;20098;-76
2023/06/24 07:36:23;;;;;;;9.00;5.80;;;;;;;;;;4994893;28;20054;-76
2023/06/24 07:38:48;;;;;;;6.85;5.03;;;;;;;;;;4995698;28;20046;-73
2023/06/24 07:41:13;;;;;;;13.65;5.65;;;;;;;;;;4978160;28;20084;-72
2023/06/24 07:43:39;;;;;;;7.25;5.22;;;;;;;;;;4995461;28;20034;-73
2023/06/24 07:46:04;;;;;;;6.45;5.00;;;;;;;;;;4993765;28;20050;-73
2023/06/24 07:48:29;;;;;;;6.95;5.78;;;;;;;;;;4995331;28;20030;-72
2023/06/24 07:50:55;;;;;;;6.18;4.97;;;;;;;;;;4995277;28;20048;-72
2023/06/24 07:53:20;;;;;;;7.60;5.07;;;;;;;;;;4995207;28;20031;-67
2023/06/24 07:55:45;;;;;;;5.30;4.78;;;;;;;;;;4995197;28;20026;-73
2023/06/24 07:58:11;;;;;;;6.00;5.22;;;;;;;;;;4995374;28;20038;-73
2023/06/24 08:00:36;;;;;;;5.97;5.15;;;;;;;;;;4978441;28;20551;-73
2023/06/24 08:03:03;;;;;;;6.28;4.28;;;;;;;;;;4995711;28;20117;-73
2023/06/24 08:05:28;;;;;;;5.20;4.70;;;;;;;;;;4978180;28;20421;-73
2023/06/24 08:07:54;;;;;;;4.50;4.20;;;;;;;;;;4977593;28;20037;-73
2023/06/24 08:10:19;;;;;;;6.93;4.72;;;;;;;;;;4995886;28;20085;-73
2023/06/24 08:12:46;;;;;;;5.82;5.25;;;;;;;;;;4996361;28;20026;-72
2023/06/24 08:15:11;;;;;;;5.97;5.18;;;;;;;;;;4996095;28;20108;-72
2023/06/24 08:17:37;;;;;;;5.45;4.97;;;;;;;;;;4977128;28;20100;-72
2023/06/24 08:20:04;;;;;;;5.30;4.72;;;;;;;;;;4995471;28;20022;-72
2023/06/24 08:22:30;;;;;;;4.47;4.07;;;;;;;;;;4995930;28;20030;-72
2023/06/24 08:24:55;;;;;;;5.82;5.32;;;;;;;;;;4994533;28;20457;-72
2023/06/24 08:27:21;;;;;;;5.53;5.10;;;;;;;;;;4995831;28;20045;-72
2023/06/24 08:29:46;;;;;;;5.40;4.88;;;;;;;;;;4993513;28;20519;-72
2023/06/24 08:32:11;;;;;;;6.03;4.22;;;;;;;;;;4993293;28;20034;-72
2023/06/24 08:34:37;;;;;;;5.45;4.95;;;;;;;;;;4993554;28;20023;-72
2023/06/24 08:37:02;;;;;;;7.25;4.93;;;;;;;;;;4976199;28;20042;-72
2023/06/24 08:39:28;;;;;;;4.45;4.03;;;;;;;;;;4993803;28;20034;-72
2023/06/24 08:41:53;;;;;;;4.93;4.53;;;;;;;;;;4993710;28;20081;-72
2023/06/24 08:44:19;;;;;;;4.32;4.00;;;;;;;;;;4993560;28;20058;-72
2023/06/24 08:46:44;;;;;;;5.22;4.82;;;;;;;;;;4995245;28;20042;-72
2023/06/24 08:49:09;;;;;;;5.38;4.50;;;;;;;;;;4994476;28;20410;-72
2023/06/24 08:51:39;;;;;;;6.35;4.70;;;;;;;;;;4993902;28;20109;-72
2023/06/24 08:54:06;;;;;;;4.63;4.23;;;;;;;;;;4995120;28;20030;-72
2023/06/24 08:56:32;;;;;;;5.07;4.68;;;;;;;;;;4995360;28;20038;-72
2023/06/24 08:58:57;;;;;;;4.80;4.38;;;;;;;;;;4995302;28;20081;-72
2023/06/24 09:01:23;;;;;;;6.10;4.53;;;;;;;;;;4996603;23;20029;-65
2023/06/24 09:03:48;;;;;;;5.68;5.18;;;;;;;;;;5053730;28;20112;-64
2023/06/24 09:06:14;;;;;;;5.18;4.68;;;;;;;;;;5054372;28;20032;-64
2023/06/24 09:08:41;;;;;;;5.90;5.30;;;;;;;;;;5036289;28;20367;-65
2023/06/24 09:11:08;;;;;;;4.60;4.28;;;;;;;;;;5054114;28;20021;-64
2023/06/24 09:13:34;;;;;;;4.45;4.03;;;;;;;;;;5036165;28;20029;-64
2023/06/24 09:15:59;;;;;;;4.72;4.32;;;;;;;;;;5054258;28;20028;-64
2023/06/24 09:18:31;;;;;;;4.15;3.65;;;;;;;;;;5053960;28;20471;-65
2023/06/24 09:20:56;;;;;;;5.53;4.53;;;;;;;;;;5053026;28;20382;-65
2023/06/24 09:23:25;;;;;;;5.18;4.68;;;;;;;;;;5054181;28;20021;-64
2023/06/24 09:25:58;;;;;;;4.47;4.07;;;;;;;;;;5053770;28;20025;-64
2023/06/24 09:28:26;;;;;;;5.47;4.57;;;;;;;;;;5054367;28;20112;-65
2023/06/24 09:31:03;;;;;;;5.05;4.60;;;;;;;;;;5053783;28;20032;-64
2023/06/24 09:33:29;;;;;;;5.90;4.45;;;;;;;;;;5053749;28;20063;-64
2023/06/24 09:35:56;;;;;;;8.45;4.72;;;;;;;;;;5053397;28;20025;-65
2023/06/24 09:38:31;;;;;;;5.30;4.88;;;;;;;;;;5053639;28;20017;-64
2023/06/24 09:41:02;;;;;;;6.80;5.18;;;;;;;;;;5054193;28;20037;-64
2023/06/24 09:43:27;;;;;;;9.88;5.10;;;;;;;;;;5053887;28;20040;-64
2023/06/24 09:45:54;;;;;;;4.38;4.07;;;;;;;;;;5053748;28;20132;-64
2023/06/24 09:48:19;;;;;;;5.32;4.82;;;;;;;;;;5035726;28;20116;-64
2023/06/24 09:50:45;;;;;;;4.43;4.03;;;;;;;;;;5052363;28;20040;-64
2023/06/24 09:53:10;;;;;;;5.82;5.28;;;;;;;;;;5053798;28;20033;-64
2023/06/24 09:55:39;;;;;;;4.90;4.40;;;;;;;;;;5052631;28;20036;-64
2023/06/24 09:58:04;;;;;;;5.15;4.38;;;;;;;;;;5053728;28;20024;-64
2023/06/24 10:00:29;;;;;;;6.30;5.05;;;;;;;;;;5052580;28;20459;-64
2023/06/24 10:02:55;;;;;;;5.57;4.95;;;;;;;;;;5053393;28;20487;-64
2023/06/24 10:05:20;;;;;;;5.50;5.00;;;;;;;;;;5035552;28;20111;-64
2023/06/24 10:07:46;;;;;;;5.18;4.78;;;;;;;;;;5035582;28;20037;-64
2023/06/24 10:10:12;;;;;;;5.57;5.07;;;;;;;;;;5053662;28;20024;-64
2023/06/24 10:12:37;;;;;;;4.93;4.25;;;;;;;;;;5035489;28;20102;-64
2023/06/24 10:15:03;;;;;;;7.65;5.30;;;;;;;;;;5053319;28;20115;-65
2023/06/24 10:17:29;;;;;;;7.35;6.15;;;;;;;;;;5035447;28;20021;-64
2023/06/24 10:19:54;;;;;;;5.72;5.32;;;;;;;;;;5053592;28;20055;-65
2023/06/24 10:22:22;;;;;;;7.70;5.15;;;;;;;;;;5053480;28;20045;-64
2023/06/24 10:24:47;;;;;;;5.85;5.30;;;;;;;;;;5053188;28;20444;-64
2023/06/24 10:27:16;;;;;;;5.82;5.32;;;;;;;;;;5053218;28;20049;-64
2023/06/24 10:29:45;;;;;;;6.22;5.60;;;;;;;;;;5035354;28;20025;-64
2023/06/24 10:32:11;;;;;;;6.72;5.63;;;;;;;;;;5053187;28;20028;-64
2023/06/24 10:34:40;;;;;;;5.85;4.93;;;;;;;;;;5035304;28;20379;-64
2023/06/24 10:37:23;;;;;;;6.88;5.45;;;;;;;;;;5053383;28;20037;-64
2023/06/24 10:39:49;;;;;;;6.32;5.43;;;;;;;;;;5053077;28;20116;-64
2023/06/24 10:42:24;;;;;;;5.15;4.72;;;;;;;;;;5035182;28;20033;-65
2023/06/24 10:44:50;;;;;;;5.35;4.95;;;;;;;;;;5053244;28;20044;-64
2023/06/24 10:47:15;;;;;;;5.70;5.22;;;;;;;;;;5053833;28;20455;-64
2023/06/24 10:49:41;;;;;;;6.60;5.93;;;;;;;;;;5038884;28;20064;-64
2023/06/24 10:52:12;;;;;;;6.68;5.85;;;;;;;;;;5057011;28;20033;-64
2023/06/24 10:54:38;;;;;;;4.90;4.50;;;;;;;;;;5056688;28;20036;-64
2023/06/24 10:57:07;;;;;;;5.70;5.20;;;;;;;;;;5056627;28;20027;-65
2023/06/24 10:59:39;;;;;;;5.75;5.25;;;;;;;;;;5056888;28;20036;-64
2023/06/24 11:02:04;;;;;;;6.75;6.05;;;;;;;;;;5038478;28;20041;-64
2023/06/24 11:04:29;;;;;;;7.68;7.03;;;;;;;;;;5038542;28;20037;-64
2023/06/24 11:07:01;;;;;;;6.35;5.85;;;;;;;;;;5038539;28;20025;-65
2023/06/24 11:09:27;;;;;;;6.22;5.28;;;;;;;;;;5056951;28;20384;-65
2023/06/24 11:11:53;;;;;;;6.32;5.78;;;;;;;;;;5056361;28;20036;-65
2023/06/24 11:14:21;;;;;;;9.13;7.05;;;;;;;;;;5056536;28;20025;-65
2023/06/24 11:16:46;;;;;;;6.80;5.88;;;;;;;;;;5056539;28;20027;-64
2023/06/24 11:19:12;;;;;;;6.57;5.90;;;;;;;;;;5056517;28;20445;-65
2023/06/24 11:21:38;;;;;;;6.70;6.10;;;;;;;;;;5056412;28;20079;-65
2023/06/24 11:24:03;;;;;;;7.60;6.45;;;;;;;;;;5056070;28;20024;-64
2023/06/24 11:26:29;;;;;;;7.55;6.32;;;;;;;;;;5055891;28;20436;-64
2023/06/24 11:28:54;;;;;;;6.82;6.10;;;;;;;;;;5055237;28;20053;-64
2023/06/24 11:31:24;;;;;;;7.18;6.47;;;;;;;;;;5054739;28;20592;-64
2023/06/24 11:33:50;;;;;;;6.78;6.25;;;;;;;;;;5054988;28;20158;-64
2023/06/24 11:36:18;;;;;;;7.18;5.90;;;;;;;;;;5055527;28;20063;-65
2023/06/24 11:38:45;;;;;;;6.57;5.93;;;;;;;;;;5037798;28;20475;-64
2023/06/24 11:41:11;;;;;;;6.88;5.72;;;;;;;;;;5053999;28;20033;-73
2023/06/24 11:43:36;;;;;;;5.72;5.13;;;;;;;;;;5056016;28;20028;-73
2023/06/24 11:46:01;;;;;;;6.03;5.43;;;;;;;;;;5055635;28;20430;-74
2023/06/24 11:48:29;;;;;;;5.95;5.40;;;;;;;;;;5055683;28;20052;-73
2023/06/24 11:50:55;;;;;;;5.68;5.18;;;;;;;;;;5055007;28;20048;-73
2023/06/24 11:53:31;;;;;;;8.25;7.32;;;;;;;;;;5055838;28;20029;-73
2023/06/24 11:55:56;;;;;;;7.88;6.70;;;;;;;;;;5037646;28;20529;-73
2023/06/24 11:58:22;;;;;;;7.25;6.53;;;;;;;;;;5055536;28;20033;-73
2023/06/24 12:00:48;;;;;;;6.80;6.20;;;;;;;;;;5036609;28;20387;-73
2023/06/24 12:03:14;;;;;;;9.85;6.65;;;;;;;;;;5053920;28;20045;-73
2023/06/24 12:05:45;;;;;;;6.18;5.57;;;;;;;;;;5054147;28;20036;-73
2023/06/24 12:08:11;;;;;;;8.63;7.07;;;;;;;;;;5036007;28;20386;-73
2023/06/24 12:10:38;;;;;;;7.05;6.35;;;;;;;;;;5053992;28;20028;-73
2023/06/24 12:13:05;;;;;;;8.32;5.97;;;;;;;;;;5054087;28;20028;-73
2023/06/24 12:15:31;;;;;;;6.95;6.05;;;;;;;;;;5036156;28;20036;-73
2023/06/24 12:17:56;;;;;;;8.05;5.88;;;;;;;;;;5036169;28;20029;-73
2023/06/24 12:20:21;;;;;;;6.80;6.22;;;;;;;;;;5052703;28;20040;-73
2023/06/24 12:22:47;;;;;;;5.88;5.28;;;;;;;;;;5036720;28;20051;-73
2023/06/24 12:25:13;;;;;;;6.55;5.95;;;;;;;;;;5053877;28;20033;-73
2023/06/24 12:27:39;;;;;;;8.57;7.07;;;;;;;;;;5053801;28;20023;-73
2023/06/24 12:30:05;;;;;;;8.60;6.90;;;;;;;;;;5053780;28;20033;-73
2023/06/24 12:32:31;;;;;;;8.57;7.03;;;;;;;;;;5052567;28;20079;-73
2023/06/24 12:34:56;;;;;;;12.05;7.55;;;;;;;;;;5036088;28;20429;-73
2023/06/24 12:37:22;;;;;;;7.47;6.70;;;;;;;;;;5053750;28;20056;-73
2023/06/24 12:39:47;;;;;;;7.38;6.68;;;;;;;;;;5053784;28;20029;-73
2023/06/24 12:42:12;;;;;;;5.50;5.00;;;;;;;;;;5053584;28;20020;-73
2023/06/24 12:44:38;;;;;;;7.10;6.18;;;;;;;;;;5053475;28;20071;-73
2023/06/24 12:47:03;;;;;;;8.43;6.68;;;;;;;;;;5053480;28;20441;-73
2023/06/24 12:49:28;;;;;;;6.05;5.55;;;;;;;;;;5053431;28;20029;-73
2023/06/24 12:51:54;;;;;;;7.68;6.35;;;;;;;;;;5053368;28;20057;-73
2023/06/24 12:54:19;;;;;;;6.55;5.90;;;;;;;;;;5053336;28;20029;-73
2023/06/24 12:56:44;;;;;;;15.40;8.75;;;;;;;;;;5053319;28;20482;-73
2023/06/24 12:59:09;;;;;;;10.00;7.00;;;;;;;;;;5053365;28;20082;-73
2023/06/24 13:01:35;;;;;;;7.13;6.43;;;;;;;;;;5053034;28;20036;-73
2023/06/24 13:04:00;;;;;;;6.88;5.55;;;;;;;;;;5053231;28;20126;-73
2023/06/24 13:06:26;;;;;;;7.00;6.28;;;;;;;;;;5053092;28;20084;-73
2023/06/24 13:08:51;;;;;;;6.35;5.85;;;;;;;;;;5053187;28;20025;-73
2023/06/24 13:11:17;;;;;;;6.35;5.70;;;;;;;;;;5052822;28;20446;-64
2023/06/24 13:13:42;;;;;;;6.20;5.60;;;;;;;;;;5052631;28;20360;-64
2023/06/24 13:16:08;;;;;;;5.55;5.05;;;;;;;;;;5053704;28;20063;-65
2023/06/24 13:18:33;;;;;;;5.53;4.97;;;;;;;;;;5053538;28;20060;-64
2023/06/24 13:20:59;;;;;;;5.40;4.85;;;;;;;;;;5052860;28;20094;-64
2023/06/24 13:23:24;;;;;;;5.95;5.30;;;;;;;;;;5052790;28;20033;-64
2023/06/24 13:25:49;;;;;;;5.35;4.55;;;;;;;;;;5052683;28;20041;-64
2023/06/24 13:28:15;;;;;;;5.35;4.95;;;;;;;;;;5052513;28;20028;-64
2023/06/24 13:30:40;;;;;;;4.93;4.32;;;;;;;;;;5034493;28;20109;-64
2023/06/24 13:33:05;;;;;;;5.68;5.18;;;;;;;;;;5035054;28;20057;-64
2023/06/24 13:35:31;;;;;;;5.30;4.80;;;;;;;;;;5034469;28;20044;-64
2023/06/24 13:37:58;;;;;;;5.78;5.18;;;;;;;;;;5052616;28;20021;-64
2023/06/24 13:40:24;;;;;;;4.60;4.20;;;;;;;;;;5052596;28;20020;-64
2023/06/24 13:42:49;;;;;;;8.13;5.00;;;;;;;;;;5052801;28;20601;-64
2023/06/24 13:45:15;;;;;;;5.28;4.78;;;;;;;;;;5052299;28;20125;-64
2023/06/24 13:47:40;;;;;;;5.43;4.10;;;;;;;;;;5053663;28;20036;-64
2023/06/24 13:50:06;;;;;;;5.38;4.88;;;;;;;;;;5053550;28;20139;-73
2023/06/24 13:52:31;;;;;;;5.07;4.57;;;;;;;;;;5035425;28;20017;-64
2023/06/24 13:54:56;;;;;;;6.80;4.90;;;;;;;;;;5053433;28;20522;-64
2023/06/24 13:57:22;;;;;;;5.85;4.32;;;;;;;;;;5053292;28;20032;-65
2023/06/24 13:59:47;;;;;;;7.43;5.43;;;;;;;;;;5051893;28;20096;-64
2023/06/24 14:02:13;;;;;;;6.40;4.72;;;;;;;;;;5061312;28;20044;-64
2023/06/24 14:04:41;;;;;;;4.43;4.10;;;;;;;;;;5073065;28;20093;-64
2023/06/24 14:07:07;;;;;;;4.57;4.13;;;;;;;;;;5054677;28;20028;-73
2023/06/24 14:09:33;;;;;;;4.68;4.25;;;;;;;;;;5072788;28;20028;-64
2023/06/24 14:11:58;;;;;;;5.78;3.50;;;;;;;;;;5055145;28;20060;-65
2023/06/24 14:14:24;;;;;;;5.00;3.50;;;;;;;;;;5072703;28;20052;-73
2023/06/24 14:16:50;;;;;;;4.07;3.70;;;;;;;;;;5054781;28;20028;-73
2023/06/24 14:19:15;;;;;;;5.30;3.65;;;;;;;;;;5072820;28;20066;-72
2023/06/24 14:21:42;;;;;;;4.38;3.97;;;;;;;;;;5053207;28;20459;-76
2023/06/24 14:24:10;;;;;;;5.38;3.63;;;;;;;;;;5055558;28;20497;-72
2023/06/24 14:26:35;;;;;;;3.97;3.55;;;;;;;;;;5056136;28;20009;-65
2023/06/24 14:29:01;;;;;;;6.55;3.78;;;;;;;;;;5056453;28;20025;-69
2023/06/24 14:31:26;;;;;;;3.80;3.50;;;;;;;;;;5055680;28;20639;-70
2023/06/24 14:33:52;;;;;;;4.13;3.80;;;;;;;;;;5055115;28;20483;-72
2023/06/24 14:36:17;;;;;;;3.83;3.22;;;;;;;;;;5055817;28;20060;-71
2023/06/24 14:38:44;;;;;;;4.70;3.40;;;;;;;;;;5055623;28;20036;-71